createdAt,value
2022-10-06T00:01:24.950Z,98332.23
2022-10-06T00:04:21.110Z,98337.80
2022-10-06T00:07:21.618Z,98343.55
2022-10-06T00:10:28.906Z,98346.00
2022-10-06T00:13:17.075Z,98351.07
2022-10-06T00:16:06.877Z,98352.34
2022-10-06T00:19:01.304Z,98354.03
2022-10-06T00:21:52.274Z,98354.53
2022-10-06T00:24:50.398Z,98347.40
2022-10-06T00:27:40.170Z,98345.27
2022-10-06T00:30:44.957Z,98345.96
2022-10-06T00:33:41.885Z,98350.39
2022-10-06T00:36:31.026Z,98357.03
2022-10-06T00:39:22.191Z,98360.55
2022-10-06T00:42:38.556Z,98363.73
2022-10-06T00:45:24.427Z,98357.23
2022-10-06T00:48:19.050Z,98356.13
2022-10-06T00:51:31.435Z,98342.67
2022-10-06T00:54:21.084Z,98324.19
2022-10-06T00:57:15.854Z,98328.27
2022-10-06T01:00:06.658Z,98350.73
2022-10-06T01:03:21.476Z,98352.14
2022-10-06T01:06:26.258Z,98352.40
2022-10-06T01:09:14.985Z,98357.30
2022-10-06T01:12:24.438Z,98370.13
2022-10-06T01:15:22.319Z,98382.77
2022-10-06T01:18:28.074Z,98388.85
2022-10-06T01:21:27.964Z,98386.61
2022-10-06T01:24:23.882Z,98402.61
2022-10-06T01:27:15.102Z,98405.58
2022-10-06T01:30:12.521Z,98416.87
2022-10-06T01:33:09.938Z,98418.09
2022-10-06T01:36:05.727Z,98409.94
2022-10-06T01:39:11.328Z,98406.04
2022-10-06T01:42:18.059Z,98404.15
2022-10-06T01:45:30.310Z,98395.23
2022-10-06T01:48:23.982Z,98398.56
2022-10-06T01:51:09.300Z,98388.42
2022-10-06T01:54:22.253Z,98386.20
2022-10-06T01:57:39.047Z,98382.95
2022-10-06T02:00:44.876Z,98380.09
2022-10-06T02:04:02.842Z,98380.66
2022-10-06T02:07:20.706Z,98374.91
2022-10-06T02:10:17.723Z,98377.23
2022-10-06T02:13:36.507Z,98379.05
2022-10-06T02:16:31.079Z,98380.29
2022-10-06T02:19:58.395Z,98382.25
2022-10-06T02:23:01.259Z,98378.37
2022-10-06T02:25:56.428Z,98378.41
2022-10-06T02:28:46.744Z,98379.33
2022-10-06T02:31:43.835Z,98383.67
2022-10-06T02:34:50.480Z,98380.91
2022-10-06T02:37:50.319Z,98386.60
2022-10-06T02:40:47.303Z,98381.78
2022-10-06T02:43:51.897Z,98371.84
2022-10-06T02:46:56.699Z,98373.52
2022-10-06T02:50:04.278Z,98376.29
2022-10-06T02:53:08.590Z,98375.48
2022-10-06T02:56:20.919Z,98382.72
2022-10-06T02:59:15.357Z,98385.45
2022-10-06T03:02:10.782Z,98384.29
2022-10-06T03:05:16.523Z,98386.69
2022-10-06T03:08:29.755Z,98387.52
2022-10-06T03:11:41.543Z,98385.63
2022-10-06T03:14:56.585Z,98390.42
2022-10-06T03:17:54.566Z,98393.22
2022-10-06T03:20:43.692Z,98389.23
2022-10-06T03:23:47.112Z,98390.92
2022-10-06T03:27:09.756Z,98394.77
2022-10-06T03:30:15.625Z,98389.84
2022-10-06T03:33:18.149Z,98390.42
2022-10-06T03:36:34.237Z,98399.48
2022-10-06T03:39:35.577Z,98399.23
2022-10-06T03:42:32.457Z,98396.38
2022-10-06T03:45:24.821Z,98392.38
2022-10-06T03:48:34.024Z,98391.80
2022-10-06T03:52:03.227Z,98395.48
2022-10-06T03:55:13.085Z,98392.16
2022-10-06T03:57:59.719Z,98393.95
2022-10-06T04:01:21.119Z,98395.69
2022-10-06T04:04:33.309Z,98400.42
2022-10-06T04:07:53.425Z,98403.65
2022-10-06T04:11:08.150Z,98402.92
2022-10-06T04:13:56.759Z,98400.51
2022-10-06T04:17:24.140Z,98402.95
2022-10-06T04:20:36.910Z,98406.42
2022-10-06T04:23:44.719Z,98405.23
2022-10-06T04:26:38.316Z,98402.61
2022-10-06T04:29:27.088Z,98401.19
2022-10-06T04:32:30.015Z,98399.23
2022-10-06T04:35:19.965Z,98402.90
2022-10-06T04:38:22.484Z,98404.50
2022-10-06T04:41:29.972Z,98403.34
2022-10-06T04:44:23.380Z,98403.05
2022-10-06T04:47:13.741Z,98403.11
2022-10-06T04:50:02.517Z,98407.31
2022-10-06T04:53:07.830Z,98410.60
2022-10-06T04:56:02.044Z,98415.05
2022-10-06T04:59:06.835Z,98415.51
2022-10-06T05:02:21.900Z,98417.52
2022-10-06T05:05:27.497Z,98428.73
2022-10-06T05:08:30.763Z,98431.96
2022-10-06T05:11:45.164Z,98434.40
2022-10-06T05:14:49.303Z,98448.77
2022-10-06T05:17:55.021Z,98452.52
2022-10-06T05:21:06.668Z,98462.70
2022-10-06T05:24:04.022Z,98459.23
2022-10-06T05:26:57.296Z,98453.80
2022-10-06T05:29:56.500Z,98463.78
2022-10-06T05:32:42.488Z,98469.19
2022-10-06T05:35:31.068Z,98472.48
2022-10-06T05:38:25.542Z,98475.88
2022-10-06T05:41:33.770Z,98477.13
2022-10-06T05:44:14.470Z,98480.91
2022-10-06T05:46:57.161Z,98480.63
2022-10-06T05:49:41.759Z,98491.65
2022-10-06T05:52:18.393Z,98487.70
2022-10-06T05:55:07.744Z,98489.39
2022-10-06T05:57:45.500Z,98488.33
2022-10-06T06:00:25.516Z,98486.14
2022-10-06T06:03:02.839Z,98493.69
2022-10-06T06:05:37.102Z,98494.00
2022-10-06T06:08:11.874Z,98502.58
2022-10-06T06:10:44.476Z,98498.88
2022-10-06T06:13:26.063Z,98502.65
2022-10-06T06:16:04.105Z,98510.14
2022-10-06T06:18:40.062Z,98513.16
2022-10-06T06:21:14.712Z,98523.78
2022-10-06T06:23:46.097Z,98526.25
2022-10-06T06:26:17.797Z,98535.16
2022-10-06T06:28:57.381Z,98539.67
2022-10-06T06:31:30.782Z,98538.42
2022-10-06T06:34:06.815Z,98536.91
2022-10-06T06:36:35.973Z,98533.85
2022-10-06T06:39:08.651Z,98533.41
2022-10-06T06:41:38.932Z,98535.55
2022-10-06T06:44:08.421Z,98537.80
2022-10-06T06:49:06.009Z,98546.33
2022-10-06T06:51:34.668Z,98551.02
2022-10-06T06:54:02.772Z,98560.00
2022-10-06T06:56:35.169Z,98562.87
2022-10-06T06:59:10.759Z,98563.21
2022-10-06T07:01:45.714Z,98566.98
2022-10-06T07:04:15.108Z,98576.08
2022-10-06T07:06:42.973Z,98577.96
2022-10-06T07:09:12.778Z,98576.23
2022-10-06T07:11:40.918Z,98579.93
2022-10-06T07:14:10.279Z,98585.03
2022-10-06T07:16:55.482Z,98584.73
2022-10-06T07:19:41.786Z,98588.02
2022-10-06T07:22:27.500Z,98587.89
2022-10-06T07:25:10.954Z,98588.16
2022-10-06T07:27:46.057Z,98596.45
2022-10-06T07:30:20.443Z,98596.84
2022-10-06T07:32:49.926Z,98596.41
2022-10-06T07:35:20.294Z,98595.81
2022-10-06T07:37:48.758Z,98600.81
2022-10-06T07:40:19.237Z,98606.31
2022-10-06T07:42:48.763Z,98614.64
2022-10-06T07:45:40.658Z,98621.80
2022-10-06T07:48:11.237Z,98621.48
2022-10-06T07:50:39.736Z,98628.45
2022-10-06T07:53:09.955Z,98630.21
2022-10-06T07:55:41.506Z,98625.73
2022-10-06T07:58:23.708Z,98630.66
2022-10-06T08:00:55.949Z,98632.43
2022-10-06T08:03:23.340Z,98640.54
2022-10-06T08:05:58.114Z,98647.99
2022-10-06T08:08:25.121Z,98644.41
2022-10-06T08:10:55.429Z,98656.45
2022-10-06T08:13:22.694Z,98648.35
2022-10-06T08:15:50.450Z,98657.81
2022-10-06T08:18:41.035Z,98658.91
2022-10-06T08:21:23.357Z,98658.79
2022-10-06T08:23:51.863Z,98666.37
2022-10-06T08:26:20.682Z,98673.15
2022-10-06T08:28:50.251Z,98671.48
2022-10-06T08:31:21.407Z,98669.33
2022-10-06T08:33:49.667Z,98675.48
2022-10-06T08:36:19.438Z,98674.31
2022-10-06T08:38:50.183Z,98678.04
2022-10-06T08:41:44.865Z,98670.52
2022-10-06T08:44:18.677Z,98677.32
2022-10-06T08:46:55.524Z,98680.41
2022-10-06T08:49:27.001Z,98674.34
2022-10-06T08:52:20.556Z,98672.04
2022-10-06T08:55:11.199Z,98679.20
2022-10-06T08:58:00.764Z,98685.27
2022-10-06T09:00:36.710Z,98691.27
2022-10-06T09:03:04.640Z,98690.73
2022-10-06T09:05:32.234Z,98688.13
2022-10-06T09:08:18.166Z,98685.56
2022-10-06T09:11:17.325Z,98696.04
2022-10-06T09:13:53.365Z,98700.42
2022-10-06T09:16:32.396Z,98706.89
2022-10-06T09:19:13.844Z,98703.71
2022-10-06T09:21:45.797Z,98700.89
2022-10-06T09:24:18.725Z,98702.89
2022-10-06T09:26:48.698Z,98704.09
2022-10-06T09:29:15.753Z,98708.66
2022-10-06T09:31:49.017Z,98712.92
2022-10-06T09:34:46.960Z,98711.23
2022-10-06T09:37:14.346Z,98714.42
2022-10-06T09:39:51.745Z,98716.23
2022-10-06T09:42:18.718Z,98716.00
2022-10-06T09:44:51.603Z,98717.98
2022-10-06T09:47:34.721Z,98716.23
2022-10-06T09:50:20.615Z,98719.53
2022-10-06T09:53:03.604Z,98719.98
2022-10-06T09:55:33.859Z,98719.73
2022-10-06T09:58:01.605Z,98719.56
2022-10-06T10:00:30.886Z,98724.60
2022-10-06T10:03:04.646Z,98726.23
2022-10-06T10:05:37.870Z,98727.13
2022-10-06T10:08:13.696Z,98735.39
2022-10-06T10:10:41.315Z,98730.98
2022-10-06T10:13:19.184Z,98729.98
2022-10-06T10:15:56.595Z,98733.33
2022-10-06T10:18:26.870Z,98733.60
2022-10-06T10:21:06.210Z,98731.19
2022-10-06T10:23:39.365Z,98732.33
2022-10-06T10:26:18.031Z,98734.84
2022-10-06T10:29:03.634Z,98730.52
2022-10-06T10:31:39.601Z,98730.14
2022-10-06T10:34:24.349Z,98735.08
2022-10-06T10:37:00.719Z,98733.52
2022-10-06T10:39:42.444Z,98738.26
2022-10-06T10:42:20.964Z,98742.22
2022-10-06T10:44:55.453Z,98749.45
2022-10-06T10:47:27.871Z,98745.50
2022-10-06T10:50:04.654Z,98751.02
2022-10-06T10:52:38.524Z,98747.86
2022-10-06T10:55:28.887Z,98747.67
2022-10-06T10:58:04.459Z,98743.44
2022-10-06T11:00:37.821Z,98740.73
2022-10-06T11:03:04.938Z,98734.77
2022-10-06T11:05:56.247Z,98730.09
2022-10-06T11:08:35.253Z,98729.02
2022-10-06T11:11:09.281Z,98732.23
2022-10-06T11:13:44.545Z,98729.96
2022-10-06T11:16:39.250Z,98730.84
2022-10-06T11:19:20.580Z,98728.80
2022-10-06T11:22:12.771Z,98729.73
2022-10-06T11:28:09.812Z,98728.94
2022-10-06T11:30:54.754Z,98730.54
2022-10-06T11:33:29.884Z,98726.52
2022-10-06T11:35:56.758Z,98727.42
2022-10-06T11:38:42.778Z,98728.39
2022-10-06T11:41:28.322Z,98728.61
2022-10-06T11:44:00.649Z,98733.40
2022-10-06T11:46:37.597Z,98733.08
2022-10-06T11:49:28.875Z,98729.48
2022-10-06T11:52:15.811Z,98734.98
2022-10-06T11:55:13.617Z,98741.10
2022-10-06T11:58:41.319Z,98745.86
2022-10-06T12:00:56.527Z,98750.39
2022-10-06T12:03:29.654Z,98750.05
2022-10-06T12:05:57.260Z,98751.25
2022-10-06T12:08:39.075Z,98753.92
2022-10-06T12:11:42.374Z,98759.08
2022-10-06T12:17:19.651Z,98750.66
2022-10-06T12:20:24.994Z,98749.08
2022-10-06T12:23:04.971Z,98748.06
2022-10-06T12:25:50.739Z,98743.55
2022-10-06T12:28:39.154Z,98741.50
2022-10-06T12:31:17.854Z,98745.20
2022-10-06T12:33:46.133Z,98748.04
2022-10-06T12:36:22.551Z,98752.23
2022-10-06T12:39:02.272Z,98750.66
2022-10-06T12:42:07.324Z,98747.60
2022-10-06T12:44:40.029Z,98745.33
2022-10-06T12:47:28.623Z,98747.98
2022-10-06T12:50:03.265Z,98744.04
2022-10-06T12:52:39.291Z,98748.02
2022-10-06T12:55:37.960Z,98750.14
2022-10-06T12:58:04.741Z,98750.33
2022-10-06T13:00:39.659Z,98750.12
2022-10-06T13:03:09.150Z,98752.21
2022-10-06T13:05:36.830Z,98753.77
2022-10-06T13:08:06.688Z,98753.48
2022-10-06T13:10:33.823Z,98755.71
2022-10-06T13:13:01.490Z,98756.19
2022-10-06T13:15:34.751Z,98757.64
2022-10-06T13:18:07.736Z,98760.71
2022-10-06T13:20:41.867Z,98762.98
2022-10-06T13:23:29.050Z,98761.45
2022-10-06T13:26:04.265Z,98757.13
2022-10-06T13:28:52.392Z,98756.42
2022-10-06T13:31:23.807Z,98749.80
2022-10-06T13:34:11.758Z,98757.94
2022-10-06T13:36:43.922Z,98758.96
2022-10-06T13:39:18.977Z,98762.28
2022-10-06T13:41:56.865Z,98761.70
2022-10-06T13:44:56.979Z,98759.55
2022-10-06T13:47:25.624Z,98758.67
2022-10-06T13:49:57.342Z,98759.91
2022-10-06T13:52:34.570Z,98761.58
2022-10-06T13:55:02.991Z,98757.70
2022-10-06T13:58:03.375Z,98756.30
2022-10-06T14:00:57.360Z,98759.61
2022-10-06T14:06:17.778Z,98754.24
2022-10-06T14:08:57.920Z,98756.92
2022-10-06T14:11:29.019Z,98763.70
2022-10-06T14:14:05.240Z,98765.02
2022-10-06T14:16:32.219Z,98767.37
2022-10-06T14:19:03.598Z,98768.40
2022-10-06T14:21:38.991Z,98767.81
2022-10-06T14:24:26.973Z,98773.62
2022-10-06T14:26:55.071Z,98772.14
2022-10-06T14:29:22.738Z,98775.65
2022-10-06T14:31:49.411Z,98775.66
2022-10-06T14:34:19.146Z,98778.84
2022-10-06T14:36:48.530Z,98779.88
2022-10-06T14:39:15.960Z,98783.78
2022-10-06T14:41:43.267Z,98781.46
2022-10-06T14:44:12.241Z,98785.31
2022-10-06T14:46:41.340Z,98788.78
2022-10-06T14:49:10.362Z,98789.05
2022-10-06T14:51:38.524Z,98792.14
2022-10-06T14:54:07.540Z,98797.40
2022-10-06T14:56:37.395Z,98799.98
2022-10-06T14:59:06.517Z,98805.70
2022-10-06T15:01:35.273Z,98806.92
2022-10-06T15:04:11.469Z,98810.22
2022-10-06T15:06:57.398Z,98813.27
2022-10-06T15:09:24.244Z,98811.77
2022-10-06T15:11:52.352Z,98812.04
2022-10-06T15:14:19.398Z,98807.73
2022-10-06T15:16:46.450Z,98811.86
2022-10-06T15:19:13.528Z,98812.45
2022-10-06T15:21:45.185Z,98812.55
2022-10-06T15:24:15.137Z,98820.91
2022-10-06T15:27:01.899Z,98822.02
2022-10-06T15:29:32.331Z,98819.63
2022-10-06T15:32:05.213Z,98823.47
2022-10-06T15:34:34.440Z,98826.84
2022-10-06T15:37:01.407Z,98829.67
2022-10-06T15:39:30.372Z,98830.61
2022-10-06T15:42:00.977Z,98829.53
2022-10-06T15:44:32.201Z,98837.00
2022-10-06T15:47:06.039Z,98842.17
2022-10-06T15:49:40.616Z,98847.49
2022-10-06T15:52:14.678Z,98847.94
2022-10-06T15:54:42.280Z,98854.16
2022-10-06T15:57:15.029Z,98858.14
2022-10-06T15:59:51.729Z,98862.21
2022-10-06T16:02:26.799Z,98861.34
2022-10-06T16:04:56.416Z,98862.41
2022-10-06T16:07:23.355Z,98862.59
2022-10-06T16:09:52.036Z,98866.99
2022-10-06T16:12:29.683Z,98868.66
2022-10-06T16:15:01.017Z,98871.22
2022-10-06T16:17:30.414Z,98872.73
2022-10-06T16:19:57.365Z,98881.27
2022-10-06T16:22:29.763Z,98888.39
2022-10-06T16:25:00.124Z,98889.59
2022-10-06T16:27:31.262Z,98897.58
2022-10-06T16:30:05.160Z,98902.77
2022-10-06T16:32:36.749Z,98910.13
2022-10-06T16:35:17.429Z,98912.22
2022-10-06T16:37:52.620Z,98922.23
2022-10-06T16:40:19.400Z,98928.10
2022-10-06T16:43:02.461Z,98931.94
2022-10-06T16:45:36.968Z,98929.17
2022-10-06T16:48:03.634Z,98933.59
2022-10-06T16:50:30.283Z,98938.33
2022-10-06T16:52:57.155Z,98940.88
2022-10-06T16:55:40.231Z,98943.45
2022-10-06T16:58:12.727Z,98947.23
2022-10-06T17:00:39.772Z,98950.96
2022-10-06T17:03:11.959Z,98958.40
2022-10-06T17:06:10.153Z,98963.35
2022-10-06T17:08:46.069Z,98962.86
2022-10-06T17:11:24.155Z,98967.55
2022-10-06T17:13:59.906Z,98971.59
2022-10-06T17:16:36.955Z,98978.19
2022-10-06T17:19:10.923Z,98980.83
2022-10-06T17:21:47.126Z,98983.33
2022-10-06T17:24:28.220Z,98990.78
2022-10-06T17:27:04.337Z,98992.44
2022-10-06T17:29:36.085Z,98995.12
2022-10-06T17:32:02.849Z,98997.39
2022-10-06T17:34:45.752Z,98995.86
2022-10-06T17:37:23.155Z,99000.32
2022-10-06T17:39:57.069Z,98998.23
2022-10-06T17:42:23.786Z,98996.95
2022-10-06T17:44:58.442Z,99001.48
2022-10-06T17:47:33.701Z,99004.50
2022-10-06T17:50:07.795Z,99005.02
2022-10-06T17:52:35.739Z,99005.81
2022-10-06T17:55:17.179Z,99005.44
2022-10-06T17:57:46.394Z,99006.05
2022-10-06T18:00:22.020Z,99008.90
2022-10-06T18:02:56.093Z,99013.39
2022-10-06T18:05:33.227Z,99015.39
2022-10-06T18:08:05.335Z,99014.46
2022-10-06T18:10:57.776Z,99014.09
2022-10-06T18:13:35.502Z,99016.41
2022-10-06T18:16:18.951Z,99014.55
2022-10-06T18:18:54.198Z,99019.38
2022-10-06T18:21:35.435Z,99021.06
2022-10-06T18:24:18.434Z,99024.32
2022-10-06T18:27:01.784Z,99023.74
2022-10-06T18:29:39.946Z,99023.65
2022-10-06T18:34:06.913Z,99029.14
2022-10-06T18:38:02.401Z,99035.65
2022-10-06T18:40:37.953Z,99041.46
2022-10-06T18:43:18.031Z,99048.85
2022-10-06T18:46:09.632Z,99044.55
2022-10-06T18:49:00.308Z,99050.95
2022-10-06T18:51:40.398Z,99054.44
2022-10-06T18:54:10.990Z,99060.73
2022-10-06T18:56:41.738Z,99063.07
2022-10-06T18:59:15.349Z,99065.05
2022-10-06T19:01:56.672Z,99060.08
2022-10-06T19:04:26.281Z,99062.95
2022-10-06T19:07:01.308Z,99063.97
2022-10-06T19:09:28.459Z,99067.75
2022-10-06T19:12:06.377Z,99068.47
2022-10-06T19:14:47.290Z,99072.34
2022-10-06T19:17:24.769Z,99072.40
2022-10-06T19:19:57.414Z,99069.42
2022-10-06T19:22:37.017Z,99067.78
2022-10-06T19:25:12.219Z,99074.13
2022-10-06T19:27:49.555Z,99073.90
2022-10-06T19:30:26.599Z,99079.57
2022-10-06T19:32:55.844Z,99080.55
2022-10-06T19:35:22.495Z,99083.61
2022-10-06T19:37:52.288Z,99079.15
2022-10-06T19:40:27.685Z,99082.35
2022-10-06T19:43:04.611Z,99085.55
2022-10-06T19:45:38.685Z,99091.83
2022-10-06T19:48:20.898Z,99092.77
2022-10-06T19:50:52.347Z,99096.95
2022-10-06T19:53:27.741Z,99101.77
2022-10-06T19:56:04.323Z,99101.05
2022-10-06T19:58:45.335Z,99103.48
2022-10-06T20:01:24.950Z,99104.03
2022-10-06T20:04:02.120Z,99102.45
2022-10-06T20:06:32.252Z,99102.50
2022-10-06T20:09:11.021Z,99106.13
2022-10-06T20:11:48.028Z,99106.87
2022-10-06T20:14:21.069Z,99104.36
2022-10-06T20:17:00.853Z,99103.20
2022-10-06T20:19:47.230Z,99099.52
2022-10-06T20:22:33.298Z,99098.05
2022-10-06T20:25:13.492Z,99102.77
2022-10-06T20:27:52.622Z,99106.38
2022-10-06T20:30:38.449Z,99108.94
2022-10-06T20:33:21.165Z,99113.70
2022-10-06T20:36:04.875Z,99115.76
2022-10-06T20:39:01.025Z,99115.70
2022-10-06T20:41:40.617Z,99122.66
2022-10-06T20:44:14.924Z,99117.45
2022-10-06T20:46:52.935Z,99119.06
2022-10-06T20:49:29.190Z,99118.02
2022-10-06T20:52:02.928Z,99119.61
2022-10-06T20:54:42.982Z,99116.54
2022-10-06T20:57:13.122Z,99114.14
2022-10-06T20:59:55.106Z,99114.90
2022-10-06T21:02:32.171Z,99115.96
2022-10-06T21:05:08.926Z,99114.14
2022-10-06T21:07:40.457Z,99117.84
2022-10-06T21:10:23.046Z,99121.79
2022-10-06T21:13:05.577Z,99117.02
2022-10-06T21:15:53.312Z,99114.55
2022-10-06T21:18:39.996Z,99112.14
2022-10-06T21:21:24.387Z,99111.80
2022-10-06T21:24:06.893Z,99111.32
2022-10-06T21:26:52.758Z,99116.05
2022-10-06T21:29:33.848Z,99117.95
2022-10-06T21:32:27.848Z,99116.80
2022-10-06T21:35:15.874Z,99116.98
2022-10-06T21:37:56.614Z,99118.91
2022-10-06T21:40:41.872Z,99118.95
2022-10-06T21:43:25.609Z,99115.91
2022-10-06T21:46:27.918Z,99116.36
2022-10-06T21:49:10.422Z,99118.39
2022-10-06T21:51:58.593Z,99120.89
2022-10-06T21:54:35.634Z,99119.44
2022-10-06T21:57:45.940Z,99115.22
2022-10-06T22:00:43.515Z,99113.27
2022-10-06T22:03:19.676Z,99109.13
2022-10-06T22:05:58.454Z,99110.94
2022-10-06T22:08:42.060Z,99109.86
2022-10-06T22:11:31.111Z,99103.06
2022-10-06T22:14:14.871Z,99098.34
2022-10-06T22:17:02.509Z,99098.09
2022-10-06T22:19:45.848Z,99096.40
2022-10-06T22:22:35.035Z,99095.44
2022-10-06T22:25:32.714Z,99096.59
2022-10-06T22:28:21.412Z,99100.02
2022-10-06T22:31:19.018Z,99103.21
2022-10-06T22:34:16.645Z,99105.69
2022-10-06T22:36:59.763Z,99101.99
2022-10-06T22:39:42.326Z,99101.23
2022-10-06T22:42:36.742Z,99096.20
2022-10-06T22:45:26.814Z,99094.74
2022-10-06T22:48:30.102Z,99093.49
2022-10-06T22:51:30.805Z,99091.35
2022-10-06T22:54:42.754Z,99092.91
2022-10-06T22:57:24.920Z,99085.41
2022-10-06T23:00:13.168Z,99086.82
2022-10-06T23:02:57.119Z,99084.50
2022-10-06T23:05:56.925Z,99081.27
2022-10-06T23:09:06.214Z,99083.29
2022-10-06T23:12:03.339Z,99082.84
2022-10-06T23:15:13.989Z,99083.81
2022-10-06T23:18:02.391Z,99078.24
2022-10-06T23:21:22.233Z,99080.35
2022-10-06T23:24:19.482Z,99076.95
2022-10-06T23:27:24.059Z,99075.89
2022-10-06T23:30:29.650Z,99076.13
2022-10-06T23:33:22.820Z,99076.77
2022-10-06T23:36:26.010Z,99075.13
2022-10-06T23:39:39.840Z,99075.69
2022-10-06T23:42:28.468Z,99072.70
2022-10-06T23:45:23.867Z,99073.92
2022-10-06T23:48:41.877Z,99073.36
2022-10-06T23:51:21.975Z,99073.39
2022-10-06T23:54:20.774Z,99073.23
2022-10-06T23:57:09.384Z,99071.14
2022-10-06T23:59:58.735Z,99069.96
